createdAt,value
2022-09-06T00:00:18.054Z,0.70
2022-09-06T00:02:46.227Z,0.80
2022-09-06T00:05:14.654Z,0.57
2022-09-06T00:07:42.369Z,0.70
2022-09-06T00:10:11.089Z,0.80
2022-09-06T00:12:38.864Z,0.60
2022-09-06T00:15:07.354Z,0.68
2022-09-06T00:17:35.032Z,0.82
2022-09-06T00:20:04.775Z,0.75
2022-09-06T00:22:32.289Z,0.70
2022-09-06T00:24:59.855Z,0.70
2022-09-06T00:27:28.522Z,0.77
2022-09-06T00:29:56.001Z,0.68
2022-09-06T00:32:23.785Z,0.70
2022-09-06T00:34:51.683Z,0.70
2022-09-06T00:37:19.273Z,0.70
2022-09-06T00:39:47.265Z,0.70
2022-09-06T00:42:15.084Z,0.40
2022-09-06T00:44:42.733Z,0.63
2022-09-06T00:47:10.450Z,0.80
2022-09-06T00:49:44.300Z,0.80
2022-09-06T00:52:15.355Z,0.80
2022-09-06T00:54:43.821Z,0.60
2022-09-06T00:57:12.138Z,0.80
2022-09-06T00:59:41.586Z,0.80
2022-09-06T01:02:10.100Z,0.50
2022-09-06T01:04:41.667Z,0.70
2022-09-06T01:07:34.105Z,0.68
2022-09-06T01:10:17.938Z,0.70
2022-09-06T01:13:08.819Z,0.90
2022-09-06T01:16:00.583Z,0.80
2022-09-06T01:18:34.119Z,0.80
2022-09-06T01:21:10.914Z,0.90
2022-09-06T01:24:04.464Z,0.80
2022-09-06T01:27:04.122Z,0.88
2022-09-06T01:30:12.795Z,0.90
2022-09-06T01:32:49.121Z,0.80
2022-09-06T01:35:22.482Z,0.90
2022-09-06T01:37:50.373Z,0.85
2022-09-06T01:40:18.173Z,0.95
2022-09-06T01:42:47.459Z,0.80
2022-09-06T01:45:19.007Z,0.90
2022-09-06T01:48:01.581Z,1.02
2022-09-06T01:50:53.778Z,0.90
2022-09-06T01:53:46.205Z,0.82
2022-09-06T01:56:45.751Z,0.90
2022-09-06T01:59:19.407Z,0.80
2022-09-06T02:02:11.632Z,0.93
2022-09-06T02:04:53.524Z,0.90
2022-09-06T02:07:26.218Z,0.90
2022-09-06T02:10:17.682Z,1.00
2022-09-06T02:12:48.399Z,1.00
2022-09-06T02:15:23.663Z,1.05
2022-09-06T02:18:01.430Z,1.00
2022-09-06T02:20:35.401Z,0.93
2022-09-06T02:23:06.375Z,0.90
2022-09-06T02:25:39.521Z,0.90
2022-09-06T02:28:09.168Z,1.10
2022-09-06T02:30:42.160Z,1.20
2022-09-06T02:33:15.221Z,1.02
2022-09-06T02:35:50.217Z,0.90
2022-09-06T02:38:21.036Z,0.93
2022-09-06T02:40:50.155Z,1.00
2022-09-06T02:45:45.243Z,0.93
2022-09-06T02:48:13.046Z,1.05
2022-09-06T02:50:40.747Z,1.00
2022-09-06T02:53:11.466Z,1.05
2022-09-06T02:55:39.715Z,0.95
2022-09-06T02:58:11.414Z,1.20
2022-09-06T03:00:39.408Z,1.00
2022-09-06T03:03:07.478Z,1.20
2022-09-06T03:05:35.091Z,1.13
2022-09-06T03:08:03.378Z,1.05
2022-09-06T03:10:31.179Z,1.13
2022-09-06T03:12:59.201Z,1.10
2022-09-06T03:15:27.003Z,1.00
2022-09-06T03:17:58.757Z,1.10
2022-09-06T03:20:26.641Z,1.30
2022-09-06T03:22:54.339Z,1.20
2022-09-06T03:25:22.015Z,1.60
2022-09-06T03:27:49.867Z,1.25
2022-09-06T03:30:17.477Z,1.20
2022-09-06T03:32:45.290Z,1.40
2022-09-06T03:35:13.045Z,1.10
2022-09-06T03:37:41.109Z,1.20
2022-09-06T03:40:09.633Z,1.20
2022-09-06T03:42:37.526Z,1.50
2022-09-06T03:45:05.887Z,1.50
2022-09-06T03:47:33.699Z,1.23
2022-09-06T03:50:01.515Z,1.60
2022-09-06T03:52:29.433Z,1.42
2022-09-06T03:54:57.455Z,1.38
2022-09-06T03:57:25.034Z,1.60
2022-09-06T03:59:52.790Z,1.63
2022-09-06T04:02:21.000Z,1.52
2022-09-06T04:04:48.614Z,1.38
2022-09-06T04:07:16.193Z,1.58
2022-09-06T04:09:43.754Z,1.70
2022-09-06T04:12:11.484Z,1.60
2022-09-06T04:14:39.183Z,2.22
2022-09-06T04:17:07.036Z,1.60
2022-09-06T04:19:34.832Z,1.70
2022-09-06T04:22:02.497Z,1.67
2022-09-06T04:24:30.194Z,1.83
2022-09-06T04:27:00.052Z,2.10
2022-09-06T04:29:27.820Z,2.08
2022-09-06T04:31:55.600Z,2.13
2022-09-06T04:34:23.211Z,2.10
2022-09-06T04:36:50.743Z,1.98
2022-09-06T04:39:18.461Z,1.83
2022-09-06T04:41:46.037Z,1.90
2022-09-06T04:44:13.590Z,2.03
2022-09-06T04:46:42.505Z,1.85
2022-09-06T04:49:10.371Z,2.78
2022-09-06T04:51:39.608Z,2.58
2022-09-06T04:54:07.347Z,3.13
2022-09-06T04:56:34.963Z,2.90
2022-09-06T04:59:03.105Z,2.30
2022-09-06T05:01:30.763Z,2.33
2022-09-06T05:03:58.350Z,2.70
2022-09-06T05:06:26.196Z,2.40
2022-09-06T05:08:53.748Z,2.42
2022-09-06T05:11:21.490Z,2.13
2022-09-06T05:13:50.372Z,1.60
2022-09-06T05:16:18.327Z,1.73
2022-09-06T05:18:46.232Z,2.00
2022-09-06T05:21:14.324Z,1.90
2022-09-06T05:23:42.222Z,1.60
2022-09-06T05:26:09.837Z,2.13
2022-09-06T05:28:37.476Z,1.95
2022-09-06T05:31:12.307Z,1.92
2022-09-06T05:33:40.224Z,1.80
2022-09-06T05:36:08.262Z,1.50
2022-09-06T05:38:35.777Z,1.58
2022-09-06T05:41:03.297Z,1.45
2022-09-06T05:43:31.082Z,1.77
2022-09-06T05:45:59.415Z,1.60
2022-09-06T05:48:27.348Z,1.63
2022-09-06T05:51:12.874Z,1.40
2022-09-06T05:53:43.344Z,1.40
2022-09-06T05:56:12.755Z,1.40
2022-09-06T05:58:40.920Z,1.35
2022-09-06T06:01:14.409Z,1.50
2022-09-06T06:03:43.338Z,1.40
2022-09-06T06:06:11.212Z,1.55
2022-09-06T06:08:39.880Z,1.08
2022-09-06T06:11:07.596Z,1.13
2022-09-06T06:13:39.508Z,1.40
2022-09-06T06:16:08.531Z,1.38
2022-09-06T06:18:36.782Z,1.92
2022-09-06T06:21:13.486Z,1.10
2022-09-06T06:23:42.621Z,1.10
2022-09-06T06:26:11.876Z,1.10
2022-09-06T06:28:40.401Z,1.20
2022-09-06T06:31:10.122Z,1.20
2022-09-06T06:33:38.858Z,1.02
2022-09-06T06:36:12.305Z,0.80
2022-09-06T06:38:42.201Z,1.15
2022-09-06T06:41:12.478Z,1.00
2022-09-06T06:43:40.573Z,0.90
2022-09-06T06:46:12.275Z,0.70
2022-09-06T06:48:43.434Z,0.90
2022-09-06T06:51:13.854Z,0.90
2022-09-06T06:53:41.722Z,0.90
2022-09-06T06:56:31.224Z,1.25
2022-09-06T06:59:01.355Z,0.80
2022-09-06T07:01:31.565Z,0.60
2022-09-06T07:03:59.696Z,0.82
2022-09-06T07:09:20.114Z,0.90
2022-09-06T07:11:49.069Z,0.98
2022-09-06T07:14:19.700Z,0.90
2022-09-06T07:16:47.642Z,0.80
2022-09-06T07:22:05.327Z,0.88
2022-09-06T07:24:33.484Z,0.90
2022-09-06T07:29:48.652Z,0.95
2022-09-06T07:32:16.494Z,1.00
2022-09-06T07:34:44.171Z,0.90
2022-09-06T07:37:11.806Z,0.90
2022-09-06T07:39:40.025Z,0.75
2022-09-06T07:42:08.238Z,1.60
2022-09-06T07:44:36.008Z,0.90
2022-09-06T07:55:29.838Z,0.80
2022-09-06T07:57:57.439Z,0.90
2022-09-06T08:00:25.388Z,1.00
2022-09-06T08:02:53.098Z,0.90
2022-09-06T08:10:56.230Z,1.10
2022-09-06T08:13:24.036Z,1.10
2022-09-06T08:16:06.271Z,0.95
2022-09-06T08:18:35.266Z,1.00
2022-09-06T08:21:12.164Z,1.17
2022-09-06T08:23:49.094Z,0.93
2022-09-06T08:26:18.052Z,1.02
2022-09-06T08:31:17.756Z,1.20
2022-09-06T08:33:47.676Z,0.80
2022-09-06T08:36:15.794Z,1.00
2022-09-06T08:38:43.404Z,0.85
2022-09-06T08:41:16.851Z,0.90
2022-09-06T08:47:04.438Z,1.15
2022-09-06T08:49:56.866Z,1.00
2022-09-06T08:52:29.202Z,0.82
2022-09-06T08:55:21.309Z,0.90
2022-09-06T08:58:01.404Z,1.00
2022-09-06T09:00:30.329Z,1.17
2022-09-06T09:05:41.169Z,1.15
2022-09-06T09:08:16.429Z,1.00
2022-09-06T09:11:03.976Z,1.10
2022-09-06T09:13:49.225Z,1.10
2022-09-06T09:16:17.756Z,1.20
2022-09-06T09:18:52.502Z,1.10
2022-09-06T09:21:26.820Z,1.00
2022-09-06T09:24:02.048Z,1.17
2022-09-06T09:26:36.992Z,0.98
2022-09-06T09:29:10.757Z,1.10
2022-09-06T09:31:51.344Z,1.00
2022-09-06T09:34:35.263Z,1.02
2022-09-06T09:40:07.339Z,1.20
2022-09-06T09:42:37.519Z,1.00
2022-09-06T09:45:20.186Z,1.00
2022-09-06T09:47:47.748Z,1.20
2022-09-06T09:50:34.737Z,1.00
2022-09-06T09:53:15.080Z,0.90
2022-09-06T09:55:44.268Z,0.90
2022-09-06T09:58:33.528Z,0.85
2022-09-06T10:01:29.316Z,0.85
2022-09-06T10:07:16.341Z,0.70
2022-09-06T10:09:47.803Z,1.00
2022-09-06T10:12:33.014Z,0.80
2022-09-06T10:15:03.630Z,0.70
2022-09-06T10:17:38.602Z,0.95
2022-09-06T10:20:12.894Z,0.90
2022-09-06T10:22:55.696Z,0.82
2022-09-06T10:26:01.856Z,0.80
2022-09-06T10:28:29.693Z,1.00
2022-09-06T10:31:29.189Z,1.00
2022-09-06T10:34:09.608Z,1.15
2022-09-06T10:36:58.006Z,0.90
2022-09-06T10:39:46.423Z,1.10
2022-09-06T10:42:37.784Z,1.30
2022-09-06T10:45:14.403Z,1.65
2022-09-06T10:48:14.472Z,3.03
2022-09-06T10:51:00.757Z,1.40
2022-09-06T10:54:02.765Z,4.25
2022-09-06T10:56:41.505Z,8.13
2022-09-06T11:02:23.924Z,1.05
2022-09-06T11:10:40.413Z,1.20
2022-09-06T11:13:18.634Z,1.30
2022-09-06T11:15:48.842Z,1.00
2022-09-06T11:18:25.203Z,0.90
2022-09-06T11:21:19.335Z,1.00
2022-09-06T11:24:06.531Z,1.00
2022-09-06T11:26:44.522Z,0.80
2022-09-06T11:29:22.413Z,0.80
2022-09-06T11:32:18.114Z,0.95
2022-09-06T11:34:58.801Z,0.90
2022-09-06T11:37:32.979Z,0.90
2022-09-06T11:42:50.825Z,1.42
2022-09-06T11:45:39.392Z,1.00
2022-09-06T11:48:34.136Z,0.93
2022-09-06T11:51:11.293Z,1.00
2022-09-06T11:53:51.051Z,1.00
2022-09-06T11:56:30.341Z,0.95
2022-09-06T11:59:03.873Z,2.03
2022-09-06T12:01:31.386Z,1.63
2022-09-06T12:04:07.217Z,1.42
2022-09-06T12:06:38.995Z,1.38
2022-09-06T12:09:36.436Z,1.90
2022-09-06T12:12:04.605Z,1.85
2022-09-06T12:14:40.990Z,2.53
2022-09-06T12:17:09.122Z,2.10
2022-09-06T12:19:45.744Z,1.20
2022-09-06T12:22:32.843Z,1.08
2022-09-06T12:25:22.205Z,1.45
2022-09-06T12:27:57.001Z,1.10
2022-09-06T12:30:45.782Z,1.10
2022-09-06T12:33:36.386Z,1.05
2022-09-06T12:36:33.439Z,1.20
2022-09-06T12:39:09.885Z,1.30
2022-09-06T12:41:43.548Z,1.30
2022-09-06T12:44:14.550Z,1.10
2022-09-06T12:46:50.885Z,1.73
2022-09-06T12:49:21.345Z,1.58
2022-09-06T12:51:49.991Z,1.40
2022-09-06T12:56:53.918Z,1.30
2022-09-06T12:59:24.622Z,1.10
2022-09-06T13:02:00.841Z,1.30
2022-09-06T13:05:03.429Z,1.10
2022-09-06T13:07:32.893Z,1.30
2022-09-06T13:10:00.743Z,1.23
2022-09-06T13:12:35.263Z,1.60
2022-09-06T13:15:17.439Z,1.20
2022-09-06T13:17:45.373Z,1.17
2022-09-06T13:20:26.120Z,1.20
2022-09-06T13:23:05.078Z,1.15
2022-09-06T13:25:33.544Z,1.52
2022-09-06T13:28:02.407Z,2.05
2022-09-06T13:30:34.772Z,1.50
2022-09-06T13:33:04.741Z,1.15
2022-09-06T13:35:36.077Z,1.45
2022-09-06T13:38:33.022Z,1.40
2022-09-06T13:41:16.903Z,0.90
2022-09-06T13:43:47.744Z,1.20
2022-09-06T13:46:16.232Z,1.05
2022-09-06T13:48:44.992Z,2.50
2022-09-06T13:51:13.019Z,0.93
2022-09-06T13:53:40.508Z,1.02
2022-09-06T13:56:08.877Z,1.20
2022-09-06T13:58:37.100Z,0.90
2022-09-06T14:01:10.112Z,0.82
2022-09-06T14:03:40.944Z,1.38
2022-09-06T14:06:10.189Z,1.50
2022-09-06T14:09:03.413Z,1.02
2022-09-06T14:11:27.002Z,1.02
2022-09-06T14:13:55.127Z,1.20
2022-09-06T14:16:22.822Z,1.13
2022-09-06T14:18:52.024Z,1.20
2022-09-06T14:21:19.918Z,1.30
2022-09-06T14:23:51.479Z,1.10
2022-09-06T14:26:23.203Z,1.25
2022-09-06T14:28:51.154Z,1.10
2022-09-06T14:31:21.820Z,1.30
2022-09-06T14:33:50.772Z,2.70
2022-09-06T14:36:21.042Z,1.60
2022-09-06T14:38:49.997Z,1.30
2022-09-06T14:46:19.362Z,1.20
2022-09-06T14:48:47.014Z,1.38
2022-09-06T14:51:20.807Z,1.10
2022-09-06T14:53:50.904Z,1.20
2022-09-06T14:56:19.410Z,1.30
2022-09-06T14:58:47.682Z,1.20
2022-09-06T15:01:25.706Z,1.23
2022-09-06T15:03:59.368Z,1.08
2022-09-06T15:06:27.757Z,1.52
2022-09-06T15:08:59.299Z,1.40
2022-09-06T15:11:34.703Z,1.40
2022-09-06T15:14:04.381Z,1.10
2022-09-06T15:16:32.972Z,1.17
2022-09-06T15:19:02.834Z,1.55
2022-09-06T15:21:31.726Z,1.40
2022-09-06T15:24:00.421Z,1.40
2022-09-06T15:28:56.125Z,1.50
2022-09-06T15:31:24.000Z,1.38
2022-09-06T15:33:52.938Z,1.30
2022-09-06T15:38:50.869Z,1.48
2022-09-06T15:41:27.272Z,1.35
2022-09-06T15:43:57.876Z,1.67
2022-09-06T15:46:34.636Z,1.20
2022-09-06T15:49:06.466Z,1.40
2022-09-06T15:51:35.686Z,1.40
2022-09-06T15:54:04.324Z,1.50
2022-09-06T15:56:32.503Z,1.65
2022-09-06T15:59:00.074Z,1.40
2022-09-06T16:01:28.194Z,1.67
2022-09-06T16:04:03.851Z,1.60
2022-09-06T16:06:38.235Z,1.88
2022-09-06T16:09:08.852Z,1.63
2022-09-06T16:11:37.582Z,1.65
2022-09-06T16:14:07.216Z,1.30
2022-09-06T16:16:35.940Z,1.70
2022-09-06T16:21:33.325Z,1.77
2022-09-06T16:24:06.955Z,2.15
2022-09-06T16:26:40.960Z,1.58
2022-09-06T16:29:10.240Z,1.48
2022-09-06T16:31:40.524Z,1.58
2022-09-06T16:34:09.865Z,1.45
2022-09-06T16:39:06.404Z,1.50
2022-09-06T16:41:42.959Z,1.77
2022-09-06T16:44:16.941Z,1.60
2022-09-06T16:46:46.989Z,1.90
2022-09-06T16:49:17.175Z,1.83
2022-09-06T16:51:46.295Z,1.60
2022-09-06T16:56:43.373Z,1.90
2022-09-06T16:59:12.012Z,1.47
2022-09-06T17:01:44.629Z,2.15
2022-09-06T17:04:15.624Z,1.70
2022-09-06T17:06:46.941Z,1.70
2022-09-06T17:09:17.791Z,1.60
2022-09-06T17:11:46.478Z,1.50
2022-09-06T17:14:14.222Z,1.80
2022-09-06T17:17:00.568Z,3.33
2022-09-06T17:19:29.741Z,2.00
2022-09-06T17:21:58.175Z,2.50
2022-09-06T17:24:27.010Z,2.17
2022-09-06T17:26:55.006Z,2.03
2022-09-06T17:29:24.450Z,2.65
2022-09-06T17:31:52.553Z,1.67
2022-09-06T17:34:20.457Z,2.42
2022-09-06T17:36:48.014Z,1.75
2022-09-06T17:39:18.336Z,2.15
2022-09-06T17:41:52.316Z,3.42
2022-09-06T17:44:23.470Z,1.90
2022-09-06T17:47:11.335Z,2.58
2022-09-06T17:49:39.520Z,1.80
2022-09-06T17:52:07.448Z,1.58
2022-09-06T17:54:35.207Z,1.48
2022-09-06T17:57:02.806Z,1.90
2022-09-06T17:59:35.090Z,2.10
2022-09-06T18:02:04.905Z,1.75
2022-09-06T18:04:33.222Z,1.85
2022-09-06T18:07:01.160Z,1.63
2022-09-06T18:09:29.056Z,1.50
2022-09-06T18:11:57.103Z,2.08
2022-09-06T18:14:24.932Z,2.03
2022-09-06T18:16:52.781Z,1.70
2022-09-06T18:19:22.247Z,1.70
2022-09-06T18:21:50.298Z,1.88
2022-09-06T18:24:18.471Z,1.75
2022-09-06T18:26:46.464Z,1.70
2022-09-06T18:29:16.834Z,1.70
2022-09-06T18:31:45.000Z,3.13
2022-09-06T18:34:12.820Z,2.73
2022-09-06T18:36:40.618Z,3.00
2022-09-06T18:39:08.727Z,1.80
2022-09-06T18:41:55.065Z,1.50
2022-09-06T18:44:23.152Z,1.52
2022-09-06T18:46:55.751Z,1.27
2022-09-06T18:49:24.076Z,1.65
2022-09-06T18:51:52.003Z,1.45
2022-09-06T18:54:20.611Z,1.83
2022-09-06T18:56:50.083Z,1.45
2022-09-06T18:59:18.378Z,1.60
2022-09-06T19:01:46.622Z,2.05
2022-09-06T19:04:14.720Z,2.22
2022-09-06T19:06:43.772Z,2.45
2022-09-06T19:09:14.694Z,1.70
2022-09-06T19:11:45.561Z,1.30
2022-09-06T19:14:15.189Z,1.10
2022-09-06T19:16:43.054Z,1.30
2022-09-06T19:19:11.960Z,1.43
2022-09-06T19:21:42.320Z,1.40
2022-09-06T19:24:15.648Z,1.63
2022-09-06T19:26:44.355Z,1.42
2022-09-06T19:29:15.863Z,1.38
2022-09-06T19:31:44.758Z,1.33
2022-09-06T19:34:15.594Z,1.10
2022-09-06T19:36:44.702Z,1.40
2022-09-06T19:39:15.158Z,1.92
2022-09-06T19:41:45.180Z,1.50
2022-09-06T19:44:17.013Z,1.30
2022-09-06T19:46:46.991Z,1.30
2022-09-06T19:49:19.532Z,1.50
2022-09-06T19:51:48.997Z,1.13
2022-09-06T19:54:17.694Z,1.30
2022-09-06T19:56:49.426Z,1.60
2022-09-06T19:59:17.815Z,2.28
2022-09-06T20:01:46.464Z,1.73
2022-09-06T20:04:15.786Z,1.30
2022-09-06T20:06:43.697Z,1.52
2022-09-06T20:09:12.385Z,1.17
2022-09-06T20:11:41.342Z,1.23
2022-09-06T20:16:41.471Z,1.20
2022-09-06T20:19:12.169Z,1.30
2022-09-06T20:21:40.401Z,1.00
2022-09-06T20:24:08.540Z,1.20
2022-09-06T20:26:36.408Z,1.20
2022-09-06T20:29:05.111Z,1.20
2022-09-06T20:31:35.167Z,1.23
2022-09-06T20:34:05.212Z,1.13
2022-09-06T20:36:33.238Z,1.10
2022-09-06T20:39:02.226Z,2.20
2022-09-06T20:41:31.024Z,1.80
2022-09-06T20:43:59.677Z,2.40
2022-09-06T20:46:29.954Z,2.50
2022-09-06T20:49:01.720Z,1.80
2022-09-06T20:51:29.680Z,1.80
2022-09-06T20:53:59.316Z,1.38
2022-09-06T20:56:29.719Z,1.27
2022-09-06T20:59:00.797Z,1.70
2022-09-06T21:01:31.107Z,1.55
2022-09-06T21:04:00.412Z,2.53
2022-09-06T21:06:30.714Z,1.67
2022-09-06T21:08:58.490Z,1.70
2022-09-06T21:11:26.192Z,1.50
2022-09-06T21:13:56.573Z,1.00
2022-09-06T21:16:29.086Z,1.20
2022-09-06T21:19:03.166Z,1.20
2022-09-06T21:21:33.082Z,1.00
2022-09-06T21:24:02.325Z,1.15
2022-09-06T21:26:30.541Z,1.10
2022-09-06T21:28:58.525Z,1.15
2022-09-06T21:31:31.313Z,1.40
2022-09-06T21:34:03.274Z,1.00
2022-09-06T21:36:34.065Z,1.25
2022-09-06T21:39:04.999Z,1.38
2022-09-06T21:41:35.103Z,1.25
2022-09-06T21:44:04.175Z,1.48
2022-09-06T21:46:34.686Z,1.15
2022-09-06T21:49:05.336Z,2.03
2022-09-06T21:51:33.323Z,1.40
2022-09-06T21:54:05.479Z,1.50
2022-09-06T21:56:38.153Z,1.50
2022-09-06T21:59:07.119Z,1.42
2022-09-06T22:01:36.796Z,1.10
2022-09-06T22:04:06.114Z,1.20
2022-09-06T22:06:35.463Z,1.67
2022-09-06T22:09:10.651Z,1.40
2022-09-06T22:11:39.686Z,1.33
2022-09-06T22:14:10.056Z,1.50
2022-09-06T22:16:39.654Z,1.33
2022-09-06T22:19:09.340Z,1.40
2022-09-06T22:21:38.798Z,1.42
2022-09-06T22:24:09.327Z,1.60
2022-09-06T22:26:38.657Z,1.58
2022-09-06T22:29:08.050Z,1.15
2022-09-06T22:31:36.553Z,1.25
2022-09-06T22:34:05.125Z,1.10
2022-09-06T22:36:33.749Z,1.13
2022-09-06T22:39:01.262Z,1.20
2022-09-06T22:41:31.359Z,1.20
2022-09-06T22:44:02.877Z,1.10
2022-09-06T22:46:31.081Z,1.10
2022-09-06T22:48:59.691Z,0.98
2022-09-06T22:51:27.483Z,1.13
2022-09-06T22:53:55.357Z,1.20
2022-09-06T22:56:22.864Z,1.10
2022-09-06T22:58:50.431Z,1.00
2022-09-06T23:01:18.144Z,1.10
2022-09-06T23:03:46.533Z,1.20
2022-09-06T23:06:14.018Z,1.20
2022-09-06T23:08:42.313Z,1.30
2022-09-06T23:11:12.866Z,0.90
2022-09-06T23:13:43.880Z,1.40
2022-09-06T23:16:17.861Z,1.10
2022-09-06T23:18:45.902Z,0.90
2022-09-06T23:21:17.120Z,1.10
2022-09-06T23:23:45.743Z,1.05
2022-09-06T23:26:19.277Z,1.13
2022-09-06T23:28:47.499Z,0.95
2022-09-06T23:31:15.752Z,1.00
2022-09-06T23:33:44.162Z,1.00
2022-09-06T23:36:14.658Z,0.90
2022-09-06T23:38:43.646Z,1.00
2022-09-06T23:43:40.735Z,1.00
2022-09-06T23:46:12.913Z,0.95
2022-09-06T23:48:40.771Z,0.93
2022-09-06T23:51:08.460Z,0.95
2022-09-06T23:53:36.464Z,0.75
2022-09-06T23:56:05.112Z,0.90
2022-09-06T23:58:33.206Z,0.93
